sensor_id;sensor_type;location;lat;lon;timestamp;temperature;humidity
3416;DHT22;1721;51.238;9.562;2023-08-20T00:00:16;21.00;99.90
3416;DHT22;1721;51.238;9.562;2023-08-20T00:02:43;21.00;99.90
3416;DHT22;1721;51.238;9.562;2023-08-20T00:05:10;21.00;99.90
3416;DHT22;1721;51.238;9.562;2023-08-20T00:07:36;21.00;99.90
3416;DHT22;1721;51.238;9.562;2023-08-20T00:10:02;21.00;99.90
3416;DHT22;1721;51.238;9.562;2023-08-20T00:12:29;21.00;99.90
3416;DHT22;1721;51.238;9.562;2023-08-20T00:15:01;20.80;99.90
3416;DHT22;1721;51.238;9.562;2023-08-20T00:17:32;20.90;99.90
3416;DHT22;1721;51.238;9.562;2023-08-20T00:19:58;20.90;99.90
3416;DHT22;1721;51.238;9.562;2023-08-20T00:22:25;21.00;99.90
3416;DHT22;1721;51.238;9.562;2023-08-20T00:24:54;21.00;99.90
3416;DHT22;1721;51.238;9.562;2023-08-20T00:27:20;21.10;99.90
3416;DHT22;1721;51.238;9.562;2023-08-20T00:29:46;21.10;99.90
3416;DHT22;1721;51.238;9.562;2023-08-20T00:32:12;21.10;99.90
3416;DHT22;1721;51.238;9.562;2023-08-20T00:34:37;21.10;99.90
3416;DHT22;1721;51.238;9.562;2023-08-20T00:37:03;21.10;99.90
3416;DHT22;1721;51.238;9.562;2023-08-20T00:39:29;21.10;99.90
3416;DHT22;1721;51.238;9.562;2023-08-20T00:41:55;21.10;99.90
3416;DHT22;1721;51.238;9.562;2023-08-20T00:44:21;21.00;99.90
3416;DHT22;1721;51.238;9.562;2023-08-20T00:46:47;21.00;99.90
3416;DHT22;1721;51.238;9.562;2023-08-20T00:49:13;21.00;99.90
3416;DHT22;1721;51.238;9.562;2023-08-20T00:51:39;20.90;99.90
3416;DHT22;1721;51.238;9.562;2023-08-20T00:54:04;20.90;99.90
3416;DHT22;1721;51.238;9.562;2023-08-20T00:56:30;20.90;99.90
3416;DHT22;1721;51.238;9.562;2023-08-20T00:58:56;20.90;99.90
3416;DHT22;1721;51.238;9.562;2023-08-20T01:01:23;20.80;99.90
3416;DHT22;1721;51.238;9.562;2023-08-20T01:03:49;20.80;99.90
3416;DHT22;1721;51.238;9.562;2023-08-20T01:06:23;20.80;99.90
3416;DHT22;1721;51.238;9.562;2023-08-20T01:09:20;20.80;99.90
3416;DHT22;1721;51.238;9.562;2023-08-20T01:11:49;20.80;99.90
3416;DHT22;1721;51.238;9.562;2023-08-20T01:14:17;20.80;99.90
3416;DHT22;1721;51.238;9.562;2023-08-20T01:16:45;20.70;99.90
3416;DHT22;1721;51.238;9.562;2023-08-20T01:19:18;20.70;99.90
3416;DHT22;1721;51.238;9.562;2023-08-20T01:22:04;20.70;99.90
3416;DHT22;1721;51.238;9.562;2023-08-20T01:24:37;20.70;99.90
3416;DHT22;1721;51.238;9.562;2023-08-20T01:30:06;20.60;99.90
3416;DHT22;1721;51.238;9.562;2023-08-20T01:32:32;20.60;99.90
3416;DHT22;1721;51.238;9.562;2023-08-20T01:34:58;20.60;99.90
3416;DHT22;1721;51.238;9.562;2023-08-20T01:37:24;20.60;99.90
3416;DHT22;1721;51.238;9.562;2023-08-20T01:39:49;20.60;99.90
3416;DHT22;1721;51.238;9.562;2023-08-20T01:42:15;20.60;99.90
3416;DHT22;1721;51.238;9.562;2023-08-20T01:44:40;20.60;99.90
3416;DHT22;1721;51.238;9.562;2023-08-20T01:47:06;20.60;99.90
3416;DHT22;1721;51.238;9.562;2023-08-20T01:49:32;20.60;99.90
3416;DHT22;1721;51.238;9.562;2023-08-20T01:51:57;20.60;99.90
3416;DHT22;1721;51.238;9.562;2023-08-20T01:54:23;20.60;99.90
3416;DHT22;1721;51.238;9.562;2023-08-20T01:56:48;20.60;99.90
3416;DHT22;1721;51.238;9.562;2023-08-20T01:59:14;20.70;99.90
3416;DHT22;1721;51.238;9.562;2023-08-20T02:01:39;20.70;99.90
3416;DHT22;1721;51.238;9.562;2023-08-20T02:04:05;20.70;99.90
3416;DHT22;1721;51.238;9.562;2023-08-20T02:06:30;20.80;99.90
3416;DHT22;1721;51.238;9.562;2023-08-20T02:08:56;20.80;99.90
3416;DHT22;1721;51.238;9.562;2023-08-20T02:11:22;20.80;99.90
3416;DHT22;1721;51.238;9.562;2023-08-20T02:13:47;20.90;99.90
3416;DHT22;1721;51.238;9.562;2023-08-20T02:16:13;20.90;99.90
3416;DHT22;1721;51.238;9.562;2023-08-20T02:18:38;21.00;99.90
3416;DHT22;1721;51.238;9.562;2023-08-20T02:21:04;20.90;99.90
3416;DHT22;1721;51.238;9.562;2023-08-20T02:23:29;21.00;99.90
3416;DHT22;1721;51.238;9.562;2023-08-20T02:25:56;21.00;99.90
3416;DHT22;1721;51.238;9.562;2023-08-20T02:28:21;21.10;99.90
3416;DHT22;1721;51.238;9.562;2023-08-20T02:30:47;21.10;99.90
3416;DHT22;1721;51.238;9.562;2023-08-20T02:33:13;21.20;99.90
3416;DHT22;1721;51.238;9.562;2023-08-20T02:35:38;21.20;99.90
3416;DHT22;1721;51.238;9.562;2023-08-20T02:38:05;21.20;99.90
3416;DHT22;1721;51.238;9.562;2023-08-20T02:40:31;21.30;99.90
3416;DHT22;1721;51.238;9.562;2023-08-20T02:42:57;21.30;99.90
3416;DHT22;1721;51.238;9.562;2023-08-20T02:45:22;21.30;99.90
3416;DHT22;1721;51.238;9.562;2023-08-20T02:47:48;21.30;99.90
3416;DHT22;1721;51.238;9.562;2023-08-20T02:50:14;21.40;99.90
3416;DHT22;1721;51.238;9.562;2023-08-20T02:52:44;21.40;99.90
3416;DHT22;1721;51.238;9.562;2023-08-20T02:55:10;21.40;99.90
3416;DHT22;1721;51.238;9.562;2023-08-20T02:57:35;21.40;99.90
3416;DHT22;1721;51.238;9.562;2023-08-20T03:00:01;21.40;99.90
3416;DHT22;1721;51.238;9.562;2023-08-20T03:02:27;21.40;99.90
3416;DHT22;1721;51.238;9.562;2023-08-20T03:04:53;21.50;99.90
3416;DHT22;1721;51.238;9.562;2023-08-20T03:07:21;21.50;99.90
3416;DHT22;1721;51.238;9.562;2023-08-20T03:09:47;21.40;99.90
3416;DHT22;1721;51.238;9.562;2023-08-20T03:12:13;21.50;99.90
3416;DHT22;1721;51.238;9.562;2023-08-20T03:14:38;21.60;99.90
3416;DHT22;1721;51.238;9.562;2023-08-20T03:17:04;21.70;99.90
3416;DHT22;1721;51.238;9.562;2023-08-20T03:19:34;21.80;99.90
3416;DHT22;1721;51.238;9.562;2023-08-20T03:22:01;21.80;99.90
3416;DHT22;1721;51.238;9.562;2023-08-20T03:24:26;21.80;99.90
3416;DHT22;1721;51.238;9.562;2023-08-20T03:26:52;21.90;99.90
3416;DHT22;1721;51.238;9.562;2023-08-20T03:29:17;21.90;99.90
3416;DHT22;1721;51.238;9.562;2023-08-20T03:31:43;22.00;99.90
3416;DHT22;1721;51.238;9.562;2023-08-20T03:34:08;21.90;99.90
3416;DHT22;1721;51.238;9.562;2023-08-20T03:36:35;21.90;99.90
3416;DHT22;1721;51.238;9.562;2023-08-20T03:39:00;21.80;99.90
3416;DHT22;1721;51.238;9.562;2023-08-20T03:41:26;21.90;99.90
3416;DHT22;1721;51.238;9.562;2023-08-20T03:43:51;22.00;99.90
3416;DHT22;1721;51.238;9.562;2023-08-20T03:46:17;22.00;99.90
3416;DHT22;1721;51.238;9.562;2023-08-20T03:48:42;22.00;99.90
3416;DHT22;1721;51.238;9.562;2023-08-20T03:51:08;22.00;99.90
3416;DHT22;1721;51.238;9.562;2023-08-20T03:53:33;22.00;99.90
3416;DHT22;1721;51.238;9.562;2023-08-20T03:55:59;22.00;99.90
3416;DHT22;1721;51.238;9.562;2023-08-20T03:58:24;22.00;99.90
3416;DHT22;1721;51.238;9.562;2023-08-20T04:00:50;22.00;99.90
3416;DHT22;1721;51.238;9.562;2023-08-20T04:03:15;22.10;99.90
3416;DHT22;1721;51.238;9.562;2023-08-20T04:05:44;22.00;99.90
3416;DHT22;1721;51.238;9.562;2023-08-20T04:08:10;22.10;99.90
3416;DHT22;1721;51.238;9.562;2023-08-20T04:10:42;22.10;99.90
3416;DHT22;1721;51.238;9.562;2023-08-20T04:13:08;22.10;99.90
3416;DHT22;1721;51.238;9.562;2023-08-20T04:15:33;22.10;99.90
3416;DHT22;1721;51.238;9.562;2023-08-20T04:17:59;22.10;99.90
3416;DHT22;1721;51.238;9.562;2023-08-20T04:20:24;22.10;99.90
3416;DHT22;1721;51.238;9.562;2023-08-20T04:22:50;22.10;99.90
3416;DHT22;1721;51.238;9.562;2023-08-20T04:25:15;22.10;99.90
3416;DHT22;1721;51.238;9.562;2023-08-20T04:27:41;22.20;99.90
3416;DHT22;1721;51.238;9.562;2023-08-20T04:30:07;22.10;99.90
3416;DHT22;1721;51.238;9.562;2023-08-20T04:32:32;22.20;99.90
3416;DHT22;1721;51.238;9.562;2023-08-20T04:34:58;22.20;99.90
3416;DHT22;1721;51.238;9.562;2023-08-20T04:37:24;22.20;99.90
3416;DHT22;1721;51.238;9.562;2023-08-20T04:39:51;22.20;99.90
3416;DHT22;1721;51.238;9.562;2023-08-20T04:42:16;22.20;99.90
3416;DHT22;1721;51.238;9.562;2023-08-20T04:44:42;22.30;99.90
3416;DHT22;1721;51.238;9.562;2023-08-20T04:47:11;22.30;99.90
3416;DHT22;1721;51.238;9.562;2023-08-20T04:49:38;22.30;99.90
3416;DHT22;1721;51.238;9.562;2023-08-20T04:52:03;22.30;99.90
3416;DHT22;1721;51.238;9.562;2023-08-20T04:54:29;22.30;99.90
3416;DHT22;1721;51.238;9.562;2023-08-20T04:56:55;22.20;99.90
3416;DHT22;1721;51.238;9.562;2023-08-20T04:59:20;22.30;99.90
3416;DHT22;1721;51.238;9.562;2023-08-20T05:01:46;22.20;99.90
3416;DHT22;1721;51.238;9.562;2023-08-20T05:04:11;22.30;99.90
3416;DHT22;1721;51.238;9.562;2023-08-20T05:06:37;22.20;99.90
3416;DHT22;1721;51.238;9.562;2023-08-20T05:09:03;22.30;99.90
3416;DHT22;1721;51.238;9.562;2023-08-20T05:11:28;22.30;99.90
3416;DHT22;1721;51.238;9.562;2023-08-20T05:13:56;22.30;99.90
3416;DHT22;1721;51.238;9.562;2023-08-20T05:16:22;22.40;99.90
3416;DHT22;1721;51.238;9.562;2023-08-20T05:18:48;22.40;99.90
3416;DHT22;1721;51.238;9.562;2023-08-20T05:21:13;22.50;99.90
3416;DHT22;1721;51.238;9.562;2023-08-20T05:23:40;22.50;99.90
3416;DHT22;1721;51.238;9.562;2023-08-20T05:26:06;22.50;99.90
3416;DHT22;1721;51.238;9.562;2023-08-20T05:28:32;22.60;99.90
3416;DHT22;1721;51.238;9.562;2023-08-20T05:30:58;22.70;99.90
3416;DHT22;1721;51.238;9.562;2023-08-20T05:33:24;22.70;99.90
3416;DHT22;1721;51.238;9.562;2023-08-20T05:35:50;22.60;99.90
3416;DHT22;1721;51.238;9.562;2023-08-20T05:38:16;22.70;99.90
3416;DHT22;1721;51.238;9.562;2023-08-20T05:40:42;22.70;99.90
3416;DHT22;1721;51.238;9.562;2023-08-20T05:43:07;22.70;99.90
3416;DHT22;1721;51.238;9.562;2023-08-20T05:45:33;22.80;99.90
3416;DHT22;1721;51.238;9.562;2023-08-20T05:47:59;22.70;99.90
3416;DHT22;1721;51.238;9.562;2023-08-20T05:50:25;22.80;99.90
3416;DHT22;1721;51.238;9.562;2023-08-20T05:52:51;22.90;99.90
3416;DHT22;1721;51.238;9.562;2023-08-20T05:55:17;22.90;99.90
3416;DHT22;1721;51.238;9.562;2023-08-20T05:57:42;23.00;99.90
3416;DHT22;1721;51.238;9.562;2023-08-20T06:00:09;23.20;99.90
3416;DHT22;1721;51.238;9.562;2023-08-20T06:02:35;23.30;99.90
3416;DHT22;1721;51.238;9.562;2023-08-20T06:05:02;23.40;99.90
3416;DHT22;1721;51.238;9.562;2023-08-20T06:07:30;23.40;99.90
3416;DHT22;1721;51.238;9.562;2023-08-20T06:09:55;23.40;99.90
3416;DHT22;1721;51.238;9.562;2023-08-20T06:12:22;23.40;99.90
3416;DHT22;1721;51.238;9.562;2023-08-20T06:14:48;23.40;99.90
3416;DHT22;1721;51.238;9.562;2023-08-20T06:17:14;23.40;99.90
3416;DHT22;1721;51.238;9.562;2023-08-20T06:19:39;23.50;99.90
3416;DHT22;1721;51.238;9.562;2023-08-20T06:22:05;23.60;99.90
3416;DHT22;1721;51.238;9.562;2023-08-20T06:24:30;23.60;99.90
3416;DHT22;1721;51.238;9.562;2023-08-20T06:26:56;23.50;99.90
3416;DHT22;1721;51.238;9.562;2023-08-20T06:29:21;23.40;99.90
3416;DHT22;1721;51.238;9.562;2023-08-20T06:31:48;23.40;99.90
3416;DHT22;1721;51.238;9.562;2023-08-20T06:34:14;23.40;99.90
3416;DHT22;1721;51.238;9.562;2023-08-20T06:36:40;23.40;99.90
3416;DHT22;1721;51.238;9.562;2023-08-20T06:39:05;23.40;99.90
3416;DHT22;1721;51.238;9.562;2023-08-20T06:41:31;23.50;99.90
3416;DHT22;1721;51.238;9.562;2023-08-20T06:43:56;23.60;99.90
3416;DHT22;1721;51.238;9.562;2023-08-20T06:46:22;23.60;99.90
3416;DHT22;1721;51.238;9.562;2023-08-20T06:48:47;23.80;99.90
3416;DHT22;1721;51.238;9.562;2023-08-20T06:51:14;23.80;99.90
3416;DHT22;1721;51.238;9.562;2023-08-20T06:53:40;23.70;99.90
3416;DHT22;1721;51.238;9.562;2023-08-20T06:56:07;23.70;99.90
3416;DHT22;1721;51.238;9.562;2023-08-20T06:58:34;23.80;99.90
3416;DHT22;1721;51.238;9.562;2023-08-20T07:00:59;23.80;99.90
3416;DHT22;1721;51.238;9.562;2023-08-20T07:03:33;23.90;99.90
3416;DHT22;1721;51.238;9.562;2023-08-20T07:05:59;24.00;99.90
3416;DHT22;1721;51.238;9.562;2023-08-20T07:08:25;24.10;99.90
3416;DHT22;1721;51.238;9.562;2023-08-20T07:10:50;24.20;99.90
3416;DHT22;1721;51.238;9.562;2023-08-20T07:13:16;24.40;99.90
3416;DHT22;1721;51.238;9.562;2023-08-20T07:15:41;24.70;99.90
3416;DHT22;1721;51.238;9.562;2023-08-20T07:18:07;24.90;99.90
3416;DHT22;1721;51.238;9.562;2023-08-20T07:20:33;24.70;99.90
3416;DHT22;1721;51.238;9.562;2023-08-20T07:22:58;24.80;99.90
3416;DHT22;1721;51.238;9.562;2023-08-20T07:25:24;24.90;99.90
3416;DHT22;1721;51.238;9.562;2023-08-20T07:27:49;25.20;99.90
3416;DHT22;1721;51.238;9.562;2023-08-20T07:30:16;25.20;99.90
3416;DHT22;1721;51.238;9.562;2023-08-20T07:32:41;25.30;99.90
3416;DHT22;1721;51.238;9.562;2023-08-20T07:35:07;25.30;99.90
3416;DHT22;1721;51.238;9.562;2023-08-20T07:37:34;25.40;99.90
3416;DHT22;1721;51.238;9.562;2023-08-20T07:39:59;25.40;99.90
3416;DHT22;1721;51.238;9.562;2023-08-20T07:42:25;25.50;99.90
3416;DHT22;1721;51.238;9.562;2023-08-20T07:44:50;25.70;99.90
3416;DHT22;1721;51.238;9.562;2023-08-20T07:47:16;25.70;99.70
3416;DHT22;1721;51.238;9.562;2023-08-20T07:49:41;25.90;99.90
3416;DHT22;1721;51.238;9.562;2023-08-20T07:52:07;26.20;99.30
3416;DHT22;1721;51.238;9.562;2023-08-20T07:54:32;26.20;99.70
3416;DHT22;1721;51.238;9.562;2023-08-20T07:56:58;26.20;98.70
3416;DHT22;1721;51.238;9.562;2023-08-20T07:59:24;26.20;99.10
3416;DHT22;1721;51.238;9.562;2023-08-20T08:01:50;26.20;99.60
3416;DHT22;1721;51.238;9.562;2023-08-20T08:04:16;26.30;98.80
3416;DHT22;1721;51.238;9.562;2023-08-20T08:06:41;26.40;98.20
3416;DHT22;1721;51.238;9.562;2023-08-20T08:11:51;26.70;98.30
3416;DHT22;1721;51.238;9.562;2023-08-20T08:14:17;26.80;98.00
3416;DHT22;1721;51.238;9.562;2023-08-20T08:16:44;26.80;97.10
3416;DHT22;1721;51.238;9.562;2023-08-20T08:19:10;26.70;97.60
3416;DHT22;1721;51.238;9.562;2023-08-20T08:21:35;26.80;97.50
3416;DHT22;1721;51.238;9.562;2023-08-20T08:24:01;26.80;97.50
3416;DHT22;1721;51.238;9.562;2023-08-20T08:26:27;26.70;97.90
3416;DHT22;1721;51.238;9.562;2023-08-20T08:28:53;26.80;98.10
3416;DHT22;1721;51.238;9.562;2023-08-20T08:31:19;26.60;97.60
3416;DHT22;1721;51.238;9.562;2023-08-20T08:33:44;26.50;97.40
3416;DHT22;1721;51.238;9.562;2023-08-20T08:36:10;26.40;97.30
3416;DHT22;1721;51.238;9.562;2023-08-20T08:38:36;26.30;97.50
3416;DHT22;1721;51.238;9.562;2023-08-20T08:41:04;26.20;98.80
3416;DHT22;1721;51.238;9.562;2023-08-20T08:43:32;26.20;98.30
3416;DHT22;1721;51.238;9.562;2023-08-20T08:45:58;26.20;98.40
3416;DHT22;1721;51.238;9.562;2023-08-20T08:48:25;26.30;98.20
3416;DHT22;1721;51.238;9.562;2023-08-20T08:50:51;26.40;98.30
3416;DHT22;1721;51.238;9.562;2023-08-20T08:53:18;26.50;98.00
3416;DHT22;1721;51.238;9.562;2023-08-20T08:55:44;26.50;97.40
3416;DHT22;1721;51.238;9.562;2023-08-20T08:58:09;26.70;97.40
3416;DHT22;1721;51.238;9.562;2023-08-20T09:00:35;26.60;97.20
3416;DHT22;1721;51.238;9.562;2023-08-20T09:03:00;26.70;97.40
3416;DHT22;1721;51.238;9.562;2023-08-20T09:05:26;26.80;97.40
3416;DHT22;1721;51.238;9.562;2023-08-20T09:07:56;26.70;97.50
3416;DHT22;1721;51.238;9.562;2023-08-20T09:10:27;26.80;97.50
3416;DHT22;1721;51.238;9.562;2023-08-20T09:12:54;26.80;97.60
3416;DHT22;1721;51.238;9.562;2023-08-20T09:15:21;26.60;97.10
3416;DHT22;1721;51.238;9.562;2023-08-20T09:17:46;26.60;97.30
3416;DHT22;1721;51.238;9.562;2023-08-20T09:20:12;26.70;97.90
3416;DHT22;1721;51.238;9.562;2023-08-20T09:22:37;26.80;96.80
3416;DHT22;1721;51.238;9.562;2023-08-20T09:25:03;26.80;96.80
3416;DHT22;1721;51.238;9.562;2023-08-20T09:27:29;26.80;97.50
3416;DHT22;1721;51.238;9.562;2023-08-20T09:30:03;26.80;97.70
3416;DHT22;1721;51.238;9.562;2023-08-20T09:32:29;26.80;98.20
3416;DHT22;1721;51.238;9.562;2023-08-20T09:34:56;26.90;97.70
3416;DHT22;1721;51.238;9.562;2023-08-20T09:37:25;27.00;97.60
3416;DHT22;1721;51.238;9.562;2023-08-20T09:39:50;27.00;97.10
3416;DHT22;1721;51.238;9.562;2023-08-20T09:42:17;27.00;97.60
3416;DHT22;1721;51.238;9.562;2023-08-20T09:44:44;26.90;97.90
3416;DHT22;1721;51.238;9.562;2023-08-20T09:47:15;27.10;98.00
3416;DHT22;1721;51.238;9.562;2023-08-20T09:49:43;27.20;98.00
3416;DHT22;1721;51.238;9.562;2023-08-20T09:52:10;27.20;96.40
3416;DHT22;1721;51.238;9.562;2023-08-20T09:57:36;27.40;96.80
3416;DHT22;1721;51.238;9.562;2023-08-20T10:00:04;27.50;96.50
3416;DHT22;1721;51.238;9.562;2023-08-20T10:02:37;27.30;96.70
3416;DHT22;1721;51.238;9.562;2023-08-20T10:05:06;27.30;96.20
3416;DHT22;1721;51.238;9.562;2023-08-20T10:07:32;27.50;96.10
3416;DHT22;1721;51.238;9.562;2023-08-20T10:09:59;27.40;96.10
3416;DHT22;1721;51.238;9.562;2023-08-20T10:12:27;27.30;95.40
3416;DHT22;1721;51.238;9.562;2023-08-20T10:14:54;27.50;95.60
3416;DHT22;1721;51.238;9.562;2023-08-20T10:17:22;27.70;96.40
3416;DHT22;1721;51.238;9.562;2023-08-20T10:19:48;27.80;96.70
3416;DHT22;1721;51.238;9.562;2023-08-20T10:22:13;27.70;95.30
3416;DHT22;1721;51.238;9.562;2023-08-20T10:24:51;27.70;95.50
3416;DHT22;1721;51.238;9.562;2023-08-20T10:27:28;27.70;95.40
3416;DHT22;1721;51.238;9.562;2023-08-20T10:29:54;27.80;95.00
3416;DHT22;1721;51.238;9.562;2023-08-20T10:32:43;27.70;95.40
3416;DHT22;1721;51.238;9.562;2023-08-20T10:35:06;27.50;95.30
3416;DHT22;1721;51.238;9.562;2023-08-20T10:37:34;27.70;96.00
3416;DHT22;1721;51.238;9.562;2023-08-20T10:40:00;27.80;95.00
3416;DHT22;1721;51.238;9.562;2023-08-20T10:42:26;27.70;93.90
3416;DHT22;1721;51.238;9.562;2023-08-20T10:44:59;27.70;93.70
3416;DHT22;1721;51.238;9.562;2023-08-20T10:47:29;27.60;94.50
3416;DHT22;1721;51.238;9.562;2023-08-20T10:50:00;27.60;93.80
3416;DHT22;1721;51.238;9.562;2023-08-20T10:52:25;27.40;94.40
3416;DHT22;1721;51.238;9.562;2023-08-20T10:54:51;27.50;94.30
3416;DHT22;1721;51.238;9.562;2023-08-20T10:57:18;27.50;95.00
3416;DHT22;1721;51.238;9.562;2023-08-20T10:59:56;27.30;95.20
3416;DHT22;1721;51.238;9.562;2023-08-20T11:02:22;27.40;95.90
3416;DHT22;1721;51.238;9.562;2023-08-20T11:04:49;27.50;95.50
3416;DHT22;1721;51.238;9.562;2023-08-20T11:07:17;27.60;95.30
3416;DHT22;1721;51.238;9.562;2023-08-20T11:09:43;27.70;94.80
3416;DHT22;1721;51.238;9.562;2023-08-20T11:12:10;27.80;94.80
3416;DHT22;1721;51.238;9.562;2023-08-20T11:14:36;27.90;94.60
3416;DHT22;1721;51.238;9.562;2023-08-20T11:17:01;27.80;94.40
3416;DHT22;1721;51.238;9.562;2023-08-20T11:19:28;27.90;94.70
3416;DHT22;1721;51.238;9.562;2023-08-20T11:21:54;27.70;94.30
3416;DHT22;1721;51.238;9.562;2023-08-20T11:24:20;27.60;93.40
3416;DHT22;1721;51.238;9.562;2023-08-20T11:26:47;27.50;93.40
3416;DHT22;1721;51.238;9.562;2023-08-20T11:29:14;27.40;93.60
3416;DHT22;1721;51.238;9.562;2023-08-20T11:31:45;27.40;93.30
3416;DHT22;1721;51.238;9.562;2023-08-20T11:34:11;27.60;92.90
3416;DHT22;1721;51.238;9.562;2023-08-20T11:36:38;27.70;93.60
3416;DHT22;1721;51.238;9.562;2023-08-20T11:39:05;27.70;92.80
3416;DHT22;1721;51.238;9.562;2023-08-20T11:41:31;27.80;91.80
3416;DHT22;1721;51.238;9.562;2023-08-20T11:44:00;27.80;92.10
3416;DHT22;1721;51.238;9.562;2023-08-20T11:46:26;27.90;92.20
3416;DHT22;1721;51.238;9.562;2023-08-20T11:49:05;28.10;92.40
3416;DHT22;1721;51.238;9.562;2023-08-20T11:54:17;28.30;91.80
3416;DHT22;1721;51.238;9.562;2023-08-20T11:56:47;28.70;91.50
3416;DHT22;1721;51.238;9.562;2023-08-20T11:59:15;28.70;92.30
3416;DHT22;1721;51.238;9.562;2023-08-20T12:01:40;28.70;91.70
3416;DHT22;1721;51.238;9.562;2023-08-20T12:04:07;28.60;92.40
3416;DHT22;1721;51.238;9.562;2023-08-20T12:06:34;28.50;92.60
3416;DHT22;1721;51.238;9.562;2023-08-20T12:09:01;28.50;92.60
3416;DHT22;1721;51.238;9.562;2023-08-20T12:11:30;28.40;93.10
3416;DHT22;1721;51.238;9.562;2023-08-20T12:13:56;28.40;92.70
3416;DHT22;1721;51.238;9.562;2023-08-20T12:16:23;28.30;92.40
3416;DHT22;1721;51.238;9.562;2023-08-20T12:18:51;28.60;92.20
3416;DHT22;1721;51.238;9.562;2023-08-20T12:21:16;28.80;91.80
3416;DHT22;1721;51.238;9.562;2023-08-20T12:23:42;29.00;92.70
3416;DHT22;1721;51.238;9.562;2023-08-20T12:26:08;29.10;92.20
3416;DHT22;1721;51.238;9.562;2023-08-20T12:28:34;29.10;92.30
3416;DHT22;1721;51.238;9.562;2023-08-20T12:31:00;29.20;92.30
3416;DHT22;1721;51.238;9.562;2023-08-20T12:33:25;29.30;92.20
3416;DHT22;1721;51.238;9.562;2023-08-20T12:35:54;29.30;92.10
3416;DHT22;1721;51.238;9.562;2023-08-20T12:38:20;29.00;92.00
3416;DHT22;1721;51.238;9.562;2023-08-20T12:40:46;28.90;92.00
3416;DHT22;1721;51.238;9.562;2023-08-20T12:43:11;28.90;92.20
3416;DHT22;1721;51.238;9.562;2023-08-20T12:45:37;28.80;92.20
3416;DHT22;1721;51.238;9.562;2023-08-20T12:48:04;28.90;91.70
3416;DHT22;1721;51.238;9.562;2023-08-20T12:50:30;28.80;91.40
3416;DHT22;1721;51.238;9.562;2023-08-20T12:52:55;28.80;92.20
3416;DHT22;1721;51.238;9.562;2023-08-20T12:55:21;28.70;92.70
3416;DHT22;1721;51.238;9.562;2023-08-20T12:57:57;28.40;93.30
3416;DHT22;1721;51.238;9.562;2023-08-20T13:00:24;28.40;93.60
3416;DHT22;1721;51.238;9.562;2023-08-20T13:02:54;28.40;93.40
3416;DHT22;1721;51.238;9.562;2023-08-20T13:05:21;28.50;92.80
3416;DHT22;1721;51.238;9.562;2023-08-20T13:07:47;28.60;92.80
3416;DHT22;1721;51.238;9.562;2023-08-20T13:10:13;28.50;91.60
3416;DHT22;1721;51.238;9.562;2023-08-20T13:12:41;28.60;92.00
3416;DHT22;1721;51.238;9.562;2023-08-20T13:15:08;28.60;92.40
3416;DHT22;1721;51.238;9.562;2023-08-20T13:17:35;28.70;91.80
3416;DHT22;1721;51.238;9.562;2023-08-20T13:20:00;28.70;91.90
3416;DHT22;1721;51.238;9.562;2023-08-20T13:22:26;28.60;92.60
3416;DHT22;1721;51.238;9.562;2023-08-20T13:24:52;28.60;92.20
3416;DHT22;1721;51.238;9.562;2023-08-20T13:27:17;28.50;91.60
3416;DHT22;1721;51.238;9.562;2023-08-20T13:29:43;28.30;90.30
3416;DHT22;1721;51.238;9.562;2023-08-20T13:32:08;28.20;91.70
3416;DHT22;1721;51.238;9.562;2023-08-20T13:34:34;28.30;91.10
3416;DHT22;1721;51.238;9.562;2023-08-20T13:36:59;28.30;90.20
3416;DHT22;1721;51.238;9.562;2023-08-20T13:39:25;28.40;90.90
3416;DHT22;1721;51.238;9.562;2023-08-20T13:41:51;28.50;90.70
3416;DHT22;1721;51.238;9.562;2023-08-20T13:44:17;28.70;90.40
3416;DHT22;1721;51.238;9.562;2023-08-20T13:46:43;28.80;89.20
3416;DHT22;1721;51.238;9.562;2023-08-20T13:49:08;28.90;88.00
3416;DHT22;1721;51.238;9.562;2023-08-20T13:51:34;28.90;85.10
3416;DHT22;1721;51.238;9.562;2023-08-20T13:54:00;28.90;85.60
3416;DHT22;1721;51.238;9.562;2023-08-20T13:56:26;29.10;85.10
3416;DHT22;1721;51.238;9.562;2023-08-20T13:58:55;29.20;84.60
3416;DHT22;1721;51.238;9.562;2023-08-20T14:01:21;29.20;84.60
3416;DHT22;1721;51.238;9.562;2023-08-20T14:03:46;29.30;85.40
3416;DHT22;1721;51.238;9.562;2023-08-20T14:06:12;29.50;84.30
3416;DHT22;1721;51.238;9.562;2023-08-20T14:08:37;29.60;86.70
3416;DHT22;1721;51.238;9.562;2023-08-20T14:11:03;29.70;86.00
3416;DHT22;1721;51.238;9.562;2023-08-20T14:13:29;29.90;85.40
3416;DHT22;1721;51.238;9.562;2023-08-20T14:15:54;30.00;83.90
3416;DHT22;1721;51.238;9.562;2023-08-20T14:18:20;29.80;87.40
3416;DHT22;1721;51.238;9.562;2023-08-20T14:20:46;30.00;85.20
3416;DHT22;1721;51.238;9.562;2023-08-20T14:23:11;30.20;87.00
3416;DHT22;1721;51.238;9.562;2023-08-20T14:25:37;30.20;87.10
3416;DHT22;1721;51.238;9.562;2023-08-20T14:28:06;30.30;84.30
3416;DHT22;1721;51.238;9.562;2023-08-20T14:30:35;30.30;84.80
3416;DHT22;1721;51.238;9.562;2023-08-20T14:33:01;30.10;84.60
3416;DHT22;1721;51.238;9.562;2023-08-20T14:35:26;30.00;86.80
3416;DHT22;1721;51.238;9.562;2023-08-20T14:37:53;30.00;85.10
3416;DHT22;1721;51.238;9.562;2023-08-20T14:40:19;29.70;85.40
3416;DHT22;1721;51.238;9.562;2023-08-20T14:42:45;29.60;87.30
3416;DHT22;1721;51.238;9.562;2023-08-20T14:45:10;29.60;85.40
3416;DHT22;1721;51.238;9.562;2023-08-20T14:47:36;29.60;87.50
3416;DHT22;1721;51.238;9.562;2023-08-20T14:50:02;29.60;89.60
3416;DHT22;1721;51.238;9.562;2023-08-20T14:52:27;29.60;89.50
3416;DHT22;1721;51.238;9.562;2023-08-20T14:54:53;29.70;87.30
3416;DHT22;1721;51.238;9.562;2023-08-20T14:57:19;29.60;88.00
3416;DHT22;1721;51.238;9.562;2023-08-20T14:59:44;29.60;88.40
3416;DHT22;1721;51.238;9.562;2023-08-20T15:02:10;29.60;88.30
3416;DHT22;1721;51.238;9.562;2023-08-20T15:04:35;29.60;88.30
3416;DHT22;1721;51.238;9.562;2023-08-20T15:07:01;29.60;87.30
3416;DHT22;1721;51.238;9.562;2023-08-20T15:09:27;29.70;87.30
3416;DHT22;1721;51.238;9.562;2023-08-20T15:11:53;29.70;86.80
3416;DHT22;1721;51.238;9.562;2023-08-20T15:14:18;29.80;86.60
3416;DHT22;1721;51.238;9.562;2023-08-20T15:16:45;29.80;86.80
3416;DHT22;1721;51.238;9.562;2023-08-20T15:19:11;29.80;88.50
3416;DHT22;1721;51.238;9.562;2023-08-20T15:21:36;29.70;86.30
3416;DHT22;1721;51.238;9.562;2023-08-20T15:24:02;29.60;89.00
3416;DHT22;1721;51.238;9.562;2023-08-20T15:26:29;29.50;89.90
3416;DHT22;1721;51.238;9.562;2023-08-20T15:28:54;29.30;88.80
3416;DHT22;1721;51.238;9.562;2023-08-20T15:31:20;29.10;87.50
3416;DHT22;1721;51.238;9.562;2023-08-20T15:33:46;29.10;89.50
3416;DHT22;1721;51.238;9.562;2023-08-20T15:36:12;29.00;90.90
3416;DHT22;1721;51.238;9.562;2023-08-20T15:38:38;29.00;89.40
3416;DHT22;1721;51.238;9.562;2023-08-20T15:41:03;29.10;87.90
3416;DHT22;1721;51.238;9.562;2023-08-20T15:43:29;29.10;87.40
3416;DHT22;1721;51.238;9.562;2023-08-20T15:45:55;29.00;87.70
3416;DHT22;1721;51.238;9.562;2023-08-20T15:48:20;29.10;88.50
3416;DHT22;1721;51.238;9.562;2023-08-20T15:50:46;29.20;87.80
3416;DHT22;1721;51.238;9.562;2023-08-20T15:53:12;29.20;87.40
3416;DHT22;1721;51.238;9.562;2023-08-20T15:55:37;29.10;86.60
3416;DHT22;1721;51.238;9.562;2023-08-20T15:58:03;29.00;87.80
3416;DHT22;1721;51.238;9.562;2023-08-20T16:00:29;28.90;87.50
3416;DHT22;1721;51.238;9.562;2023-08-20T16:02:55;28.80;88.60
3416;DHT22;1721;51.238;9.562;2023-08-20T16:05:21;28.90;90.00
3416;DHT22;1721;51.238;9.562;2023-08-20T16:07:47;28.80;89.30